sensor_id;sensor_type;location;lat;lon;timestamp;P1;durP1;ratioP1;P2;durP2;ratioP2
24867;SDS011;12941;48.698;9.310;2024-03-08T00:00:53;21.8;;;15;;
24867;SDS011;12941;48.698;9.310;2024-03-08T00:01:58;24;;;18.7;;
24867;SDS011;12941;48.698;9.310;2024-03-08T00:03:03;24;;;18.7;;
24867;SDS011;12941;48.698;9.310;2024-03-08T00:04:08;24;;;18.7;;
24867;SDS011;12941;48.698;9.310;2024-03-08T00:05:13;24;;;18.7;;
24867;SDS011;12941;48.698;9.310;2024-03-08T00:06:13;24;;;18.7;;
24867;SDS011;12941;48.698;9.310;2024-03-08T00:07:13;22.8;;;15.4;;
24867;SDS011;12941;48.698;9.310;2024-03-08T00:08:18;22.8;;;15.4;;
24867;SDS011;12941;48.698;9.310;2024-03-08T00:09:23;22.8;;;15.4;;
24867;SDS011;12941;48.698;9.310;2024-03-08T00:10:23;22.8;;;15.4;;
24867;SDS011;12941;48.698;9.310;2024-03-08T00:11:28;22.8;;;15.4;;
24867;SDS011;12941;48.698;9.310;2024-03-08T00:12:28;22.5;;;15.1;;
24867;SDS011;12941;48.698;9.310;2024-03-08T00:13:28;22.5;;;15.1;;
24867;SDS011;12941;48.698;9.310;2024-03-08T00:14:33;22.5;;;15.1;;
24867;SDS011;12941;48.698;9.310;2024-03-08T00:15:33;22.5;;;15.1;;
24867;SDS011;12941;48.698;9.310;2024-03-08T00:16:33;22.5;;;15.1;;
24867;SDS011;12941;48.698;9.310;2024-03-08T00:17:38;21;;;14.7;;
24867;SDS011;12941;48.698;9.310;2024-03-08T00:18:38;21;;;14.7;;
24867;SDS011;12941;48.698;9.310;2024-03-08T00:19:38;21;;;14.7;;
24867;SDS011;12941;48.698;9.310;2024-03-08T00:20:43;21;;;14.7;;
24867;SDS011;12941;48.698;9.310;2024-03-08T00:21:48;21;;;14.7;;
24867;SDS011;12941;48.698;9.310;2024-03-08T00:22:53;22.5;;;15.3;;
24867;SDS011;12941;48.698;9.310;2024-03-08T00:23:58;22.5;;;15.3;;
24867;SDS011;12941;48.698;9.310;2024-03-08T00:25:03;22.5;;;15.3;;
24867;SDS011;12941;48.698;9.310;2024-03-08T00:26:08;22.5;;;15.3;;
24867;SDS011;12941;48.698;9.310;2024-03-08T00:27:08;19.6;;;14.3;;
24867;SDS011;12941;48.698;9.310;2024-03-08T00:28:13;19.6;;;14.3;;
24867;SDS011;12941;48.698;9.310;2024-03-08T00:29:13;19.6;;;14.3;;
24867;SDS011;12941;48.698;9.310;2024-03-08T00:30:18;19.6;;;14.3;;
24867;SDS011;12941;48.698;9.310;2024-03-08T00:31:23;19.6;;;14.3;;
24867;SDS011;12941;48.698;9.310;2024-03-08T00:32:23;20.7;;;14.5;;
24867;SDS011;12941;48.698;9.310;2024-03-08T00:33:28;20.7;;;14.5;;
24867;SDS011;12941;48.698;9.310;2024-03-08T00:34:34;20.7;;;14.5;;
24867;SDS011;12941;48.698;9.310;2024-03-08T00:35:38;20.7;;;14.5;;
24867;SDS011;12941;48.698;9.310;2024-03-08T00:36:43;20.7;;;14.5;;
24867;SDS011;12941;48.698;9.310;2024-03-08T00:37:43;23.6;;;14.8;;
24867;SDS011;12941;48.698;9.310;2024-03-08T00:38:48;23.6;;;14.8;;
24867;SDS011;12941;48.698;9.310;2024-03-08T00:39:53;23.6;;;14.8;;
24867;SDS011;12941;48.698;9.310;2024-03-08T00:40:58;23.6;;;14.8;;
24867;SDS011;12941;48.698;9.310;2024-03-08T00:41:58;21.8;;;14.5;;
24867;SDS011;12941;48.698;9.310;2024-03-08T00:43:03;21.8;;;14.5;;
24867;SDS011;12941;48.698;9.310;2024-03-08T00:44:04;21.8;;;14.5;;
24867;SDS011;12941;48.698;9.310;2024-03-08T00:45:03;21.8;;;14.5;;
24867;SDS011;12941;48.698;9.310;2024-03-08T00:46:08;21.8;;;14.5;;
24867;SDS011;12941;48.698;9.310;2024-03-08T00:47:13;20.8;;;14;;
24867;SDS011;12941;48.698;9.310;2024-03-08T00:48:13;20.8;;;14;;
24867;SDS011;12941;48.698;9.310;2024-03-08T00:49:13;20.8;;;14;;
24867;SDS011;12941;48.698;9.310;2024-03-08T00:50:18;20.8;;;14;;
24867;SDS011;12941;48.698;9.310;2024-03-08T00:51:23;20.8;;;14;;
24867;SDS011;12941;48.698;9.310;2024-03-08T00:52:23;22.4;;;15;;
24867;SDS011;12941;48.698;9.310;2024-03-08T00:53:28;22.4;;;15;;
24867;SDS011;12941;48.698;9.310;2024-03-08T00:54:33;22.4;;;15;;
24867;SDS011;12941;48.698;9.310;2024-03-08T00:55:33;22.4;;;15;;
24867;SDS011;12941;48.698;9.310;2024-03-08T00:56:38;22.4;;;15;;
24867;SDS011;12941;48.698;9.310;2024-03-08T00:57:38;21.7;;;14.7;;
24867;SDS011;12941;48.698;9.310;2024-03-08T00:58:43;21.7;;;14.7;;
24867;SDS011;12941;48.698;9.310;2024-03-08T00:59:43;21.7;;;14.7;;
24867;SDS011;12941;48.698;9.310;2024-03-08T01:00:48;21.7;;;14.7;;
24867;SDS011;12941;48.698;9.310;2024-03-08T01:01:48;21.7;;;14.7;;
24867;SDS011;12941;48.698;9.310;2024-03-08T01:02:48;20.2;;;14.2;;
24867;SDS011;12941;48.698;9.310;2024-03-08T01:03:48;20.2;;;14.2;;
24867;SDS011;12941;48.698;9.310;2024-03-08T01:04:48;20.2;;;14.2;;
24867;SDS011;12941;48.698;9.310;2024-03-08T01:05:53;20.2;;;14.2;;
24867;SDS011;12941;48.698;9.310;2024-03-08T01:06:58;21.3;;;14.3;;
24867;SDS011;12941;48.698;9.310;2024-03-08T01:08:03;21.3;;;14.3;;
24867;SDS011;12941;48.698;9.310;2024-03-08T01:09:03;21.3;;;14.3;;
24867;SDS011;12941;48.698;9.310;2024-03-08T01:10:04;21.3;;;14.3;;
24867;SDS011;12941;48.698;9.310;2024-03-08T01:11:04;21.3;;;14.3;;
24867;SDS011;12941;48.698;9.310;2024-03-08T01:12:08;20.9;;;14.8;;
24867;SDS011;12941;48.698;9.310;2024-03-08T01:13:08;20.9;;;14.8;;
24867;SDS011;12941;48.698;9.310;2024-03-08T01:14:13;20.9;;;14.8;;
24867;SDS011;12941;48.698;9.310;2024-03-08T01:15:13;20.9;;;14.8;;
24867;SDS011;12941;48.698;9.310;2024-03-08T01:16:19;20.9;;;14.8;;
24867;SDS011;12941;48.698;9.310;2024-03-08T01:17:23;23.4;;;15.3;;
24867;SDS011;12941;48.698;9.310;2024-03-08T01:18:23;23.4;;;15.3;;
24867;SDS011;12941;48.698;9.310;2024-03-08T01:19:23;23.4;;;15.3;;
24867;SDS011;12941;48.698;9.310;2024-03-08T01:20:28;23.4;;;15.3;;
24867;SDS011;12941;48.698;9.310;2024-03-08T01:21:28;23.4;;;15.3;;
24867;SDS011;12941;48.698;9.310;2024-03-08T01:22:33;20.9;;;13.9;;
24867;SDS011;12941;48.698;9.310;2024-03-08T01:23:33;20.9;;;13.9;;
24867;SDS011;12941;48.698;9.310;2024-03-08T01:24:38;20.9;;;13.9;;
24867;SDS011;12941;48.698;9.310;2024-03-08T01:25:39;20.9;;;13.9;;
24867;SDS011;12941;48.698;9.310;2024-03-08T01:26:43;20.9;;;13.9;;
24867;SDS011;12941;48.698;9.310;2024-03-08T01:27:43;23.3;;;15.6;;
24867;SDS011;12941;48.698;9.310;2024-03-08T01:28:48;23.3;;;15.6;;
24867;SDS011;12941;48.698;9.310;2024-03-08T01:29:48;23.3;;;15.6;;
24867;SDS011;12941;48.698;9.310;2024-03-08T01:30:48;23.3;;;15.6;;
24867;SDS011;12941;48.698;9.310;2024-03-08T01:31:54;23.3;;;15.6;;
24867;SDS011;12941;48.698;9.310;2024-03-08T01:32:54;23.4;;;15.4;;
24867;SDS011;12941;48.698;9.310;2024-03-08T01:33:59;23.4;;;15.4;;
24867;SDS011;12941;48.698;9.310;2024-03-08T01:34:59;23.4;;;15.4;;
24867;SDS011;12941;48.698;9.310;2024-03-08T01:35:58;23.4;;;15.4;;
24867;SDS011;12941;48.698;9.310;2024-03-08T01:36:59;23.8;;;15.5;;
24867;SDS011;12941;48.698;9.310;2024-03-08T01:38:03;23.8;;;15.5;;
24867;SDS011;12941;48.698;9.310;2024-03-08T01:39:03;23.8;;;15.5;;
24867;SDS011;12941;48.698;9.310;2024-03-08T01:40:09;23.8;;;15.5;;
24867;SDS011;12941;48.698;9.310;2024-03-08T01:41:09;23.8;;;15.5;;
24867;SDS011;12941;48.698;9.310;2024-03-08T01:42:13;22.1;;;15.1;;
24867;SDS011;12941;48.698;9.310;2024-03-08T01:43:16;22.1;;;15.1;;
24867;SDS011;12941;48.698;9.310;2024-03-08T01:44:19;22.1;;;15.1;;
24867;SDS011;12941;48.698;9.310;2024-03-08T01:45:19;22.1;;;15.1;;
24867;SDS011;12941;48.698;9.310;2024-03-08T01:46:19;22.1;;;15.1;;
24867;SDS011;12941;48.698;9.310;2024-03-08T01:47:19;20.2;;;13.9;;
24867;SDS011;12941;48.698;9.310;2024-03-08T01:48:19;20.2;;;13.9;;
24867;SDS011;12941;48.698;9.310;2024-03-08T01:49:24;20.2;;;13.9;;
24867;SDS011;12941;48.698;9.310;2024-03-08T01:50:24;20.2;;;13.9;;
24867;SDS011;12941;48.698;9.310;2024-03-08T01:51:29;20.2;;;13.9;;
24867;SDS011;12941;48.698;9.310;2024-03-08T01:52:29;20;;;13.9;;
24867;SDS011;12941;48.698;9.310;2024-03-08T01:53:34;20;;;13.9;;
24867;SDS011;12941;48.698;9.310;2024-03-08T01:54:34;20;;;13.9;;
24867;SDS011;12941;48.698;9.310;2024-03-08T01:55:34;20;;;13.9;;
24867;SDS011;12941;48.698;9.310;2024-03-08T01:56:39;20;;;13.9;;
24867;SDS011;12941;48.698;9.310;2024-03-08T01:57:39;20.7;;;14.1;;
24867;SDS011;12941;48.698;9.310;2024-03-08T01:58:39;20.7;;;14.1;;
24867;SDS011;12941;48.698;9.310;2024-03-08T01:59:39;20.7;;;14.1;;
24867;SDS011;12941;48.698;9.310;2024-03-08T02:00:39;20.7;;;14.1;;
24867;SDS011;12941;48.698;9.310;2024-03-08T02:01:44;20.7;;;14.1;;
24867;SDS011;12941;48.698;9.310;2024-03-08T02:02:44;20.4;;;13.2;;
24867;SDS011;12941;48.698;9.310;2024-03-08T02:03:44;20.4;;;13.2;;
24867;SDS011;12941;48.698;9.310;2024-03-08T02:04:44;20.4;;;13.2;;
24867;SDS011;12941;48.698;9.310;2024-03-08T02:05:44;20.4;;;13.2;;
24867;SDS011;12941;48.698;9.310;2024-03-08T02:06:44;20.4;;;13.2;;
24867;SDS011;12941;48.698;9.310;2024-03-08T02:07:49;19.3;;;13.7;;
24867;SDS011;12941;48.698;9.310;2024-03-08T02:08:49;19.3;;;13.7;;
24867;SDS011;12941;48.698;9.310;2024-03-08T02:09:49;19.3;;;13.7;;
24867;SDS011;12941;48.698;9.310;2024-03-08T02:10:54;19.3;;;13.7;;
24867;SDS011;12941;48.698;9.310;2024-03-08T02:11:59;18.6;;;13.3;;
24867;SDS011;12941;48.698;9.310;2024-03-08T02:13:04;18.6;;;13.3;;
24867;SDS011;12941;48.698;9.310;2024-03-08T02:14:09;18.6;;;13.3;;
24867;SDS011;12941;48.698;9.310;2024-03-08T02:15:09;18.6;;;13.3;;
24867;SDS011;12941;48.698;9.310;2024-03-08T02:16:09;18.6;;;13.3;;
24867;SDS011;12941;48.698;9.310;2024-03-08T02:17:14;18.8;;;12.9;;
24867;SDS011;12941;48.698;9.310;2024-03-08T02:18:19;18.8;;;12.9;;
24867;SDS011;12941;48.698;9.310;2024-03-08T02:19:19;18.8;;;12.9;;
24867;SDS011;12941;48.698;9.310;2024-03-08T02:20:24;18.8;;;12.9;;
24867;SDS011;12941;48.698;9.310;2024-03-08T02:21:24;18.8;;;12.9;;
24867;SDS011;12941;48.698;9.310;2024-03-08T02:22:29;19.1;;;12.6;;
24867;SDS011;12941;48.698;9.310;2024-03-08T02:23:34;19.1;;;12.6;;
24867;SDS011;12941;48.698;9.310;2024-03-08T02:24:39;19.1;;;12.6;;
24867;SDS011;12941;48.698;9.310;2024-03-08T02:25:44;19.1;;;12.6;;
24867;SDS011;12941;48.698;9.310;2024-03-08T02:26:44;19.1;;;12.6;;
24867;SDS011;12941;48.698;9.310;2024-03-08T02:27:49;17.4;;;12.3;;
24867;SDS011;12941;48.698;9.310;2024-03-08T02:28:54;17.4;;;12.3;;
24867;SDS011;12941;48.698;9.310;2024-03-08T02:29:54;17.4;;;12.3;;
24867;SDS011;12941;48.698;9.310;2024-03-08T02:30:54;17.4;;;12.3;;
24867;SDS011;12941;48.698;9.310;2024-03-08T02:31:59;18.7;;;12.1;;
24867;SDS011;12941;48.698;9.310;2024-03-08T02:33:04;18.7;;;12.1;;
24867;SDS011;12941;48.698;9.310;2024-03-08T02:34:04;18.7;;;12.1;;
24867;SDS011;12941;48.698;9.310;2024-03-08T02:35:04;18.7;;;12.1;;
24867;SDS011;12941;48.698;9.310;2024-03-08T02:36:04;18.7;;;12.1;;
24867;SDS011;12941;48.698;9.310;2024-03-08T02:37:09;18;;;12.1;;
24867;SDS011;12941;48.698;9.310;2024-03-08T02:38:09;18;;;12.1;;
24867;SDS011;12941;48.698;9.310;2024-03-08T02:39:09;18;;;12.1;;
24867;SDS011;12941;48.698;9.310;2024-03-08T02:40:14;18;;;12.1;;
24867;SDS011;12941;48.698;9.310;2024-03-08T02:41:19;18;;;12.1;;
24867;SDS011;12941;48.698;9.310;2024-03-08T02:42:24;17.7;;;12.5;;
24867;SDS011;12941;48.698;9.310;2024-03-08T02:43:24;17.7;;;12.5;;
24867;SDS011;12941;48.698;9.310;2024-03-08T02:44:29;17.7;;;12.5;;
24867;SDS011;12941;48.698;9.310;2024-03-08T02:45:34;17.7;;;12.5;;
24867;SDS011;12941;48.698;9.310;2024-03-08T02:46:34;17.7;;;12.5;;
24867;SDS011;12941;48.698;9.310;2024-03-08T02:47:34;17.3;;;12.1;;
24867;SDS011;12941;48.698;9.310;2024-03-08T02:48:34;17.3;;;12.1;;
24867;SDS011;12941;48.698;9.310;2024-03-08T02:49:34;17.3;;;12.1;;
24867;SDS011;12941;48.698;9.310;2024-03-08T02:50:34;17.3;;;12.1;;
24867;SDS011;12941;48.698;9.310;2024-03-08T02:51:39;17.3;;;12.1;;
24867;SDS011;12941;48.698;9.310;2024-03-08T02:52:39;19.2;;;12.5;;
24867;SDS011;12941;48.698;9.310;2024-03-08T02:53:44;19.2;;;12.5;;
24867;SDS011;12941;48.698;9.310;2024-03-08T02:54:49;19.2;;;12.5;;
24867;SDS011;12941;48.698;9.310;2024-03-08T02:55:49;19.2;;;12.5;;
24867;SDS011;12941;48.698;9.310;2024-03-08T02:56:54;16.8;;;12.1;;
24867;SDS011;12941;48.698;9.310;2024-03-08T02:57:59;16.7;;;12;;
24867;SDS011;12941;48.698;9.310;2024-03-08T02:58:59;16.7;;;12;;
24867;SDS011;12941;48.698;9.310;2024-03-08T02:59:59;16.7;;;12;;
24867;SDS011;12941;48.698;9.310;2024-03-08T03:01:04;16.7;;;12;;
24867;SDS011;12941;48.698;9.310;2024-03-08T03:02:04;18;;;12.4;;
24867;SDS011;12941;48.698;9.310;2024-03-08T03:03:04;18;;;12.4;;
24867;SDS011;12941;48.698;9.310;2024-03-08T03:04:04;18;;;12.4;;
24867;SDS011;12941;48.698;9.310;2024-03-08T03:05:09;18;;;12.4;;
24867;SDS011;12941;48.698;9.310;2024-03-08T03:06:09;18;;;12.4;;
24867;SDS011;12941;48.698;9.310;2024-03-08T03:07:09;18.7;;;12.1;;
24867;SDS011;12941;48.698;9.310;2024-03-08T03:08:14;18.7;;;12.1;;
24867;SDS011;12941;48.698;9.310;2024-03-08T03:09:19;18.7;;;12.1;;
24867;SDS011;12941;48.698;9.310;2024-03-08T03:10:24;18.7;;;12.1;;
24867;SDS011;12941;48.698;9.310;2024-03-08T03:11:29;18.7;;;12.1;;
24867;SDS011;12941;48.698;9.310;2024-03-08T03:12:34;19.7;;;12.9;;
24867;SDS011;12941;48.698;9.310;2024-03-08T03:13:34;19.7;;;12.9;;
24867;SDS011;12941;48.698;9.310;2024-03-08T03:14:39;19.7;;;12.9;;
24867;SDS011;12941;48.698;9.310;2024-03-08T03:15:39;19.7;;;12.9;;
24867;SDS011;12941;48.698;9.310;2024-03-08T03:16:39;19.7;;;12.9;;
24867;SDS011;12941;48.698;9.310;2024-03-08T03:17:39;18.3;;;12.7;;
24867;SDS011;12941;48.698;9.310;2024-03-08T03:18:39;18.3;;;12.7;;
24867;SDS011;12941;48.698;9.310;2024-03-08T03:19:40;18.3;;;12.7;;
24867;SDS011;12941;48.698;9.310;2024-03-08T03:20:44;18.3;;;12.7;;
24867;SDS011;12941;48.698;9.310;2024-03-08T03:21:44;18.3;;;12.7;;
24867;SDS011;12941;48.698;9.310;2024-03-08T03:22:44;18.7;;;12.7;;
24867;SDS011;12941;48.698;9.310;2024-03-08T03:23:49;18.7;;;12.7;;
24867;SDS011;12941;48.698;9.310;2024-03-08T03:24:49;18.7;;;12.7;;
24867;SDS011;12941;48.698;9.310;2024-03-08T03:25:54;18.7;;;12.7;;
24867;SDS011;12941;48.698;9.310;2024-03-08T03:26:54;19.5;;;13.2;;
24867;SDS011;12941;48.698;9.310;2024-03-08T03:27:59;19.3;;;13.1;;
24867;SDS011;12941;48.698;9.310;2024-03-08T03:28:59;19.3;;;13.1;;
24867;SDS011;12941;48.698;9.310;2024-03-08T03:29:59;19.3;;;13.1;;
24867;SDS011;12941;48.698;9.310;2024-03-08T03:30:59;19.3;;;13.1;;
24867;SDS011;12941;48.698;9.310;2024-03-08T03:32:04;19;;;13;;
24867;SDS011;12941;48.698;9.310;2024-03-08T03:33:04;19;;;13;;
24867;SDS011;12941;48.698;9.310;2024-03-08T03:34:09;19;;;13;;
24867;SDS011;12941;48.698;9.310;2024-03-08T03:35:14;19;;;13;;
24867;SDS011;12941;48.698;9.310;2024-03-08T03:36:19;19;;;13;;
24867;SDS011;12941;48.698;9.310;2024-03-08T03:37:24;20.2;;;13.4;;
24867;SDS011;12941;48.698;9.310;2024-03-08T03:38:24;20.2;;;13.4;;
24867;SDS011;12941;48.698;9.310;2024-03-08T03:39:29;20.2;;;13.4;;
24867;SDS011;12941;48.698;9.310;2024-03-08T03:40:35;20.2;;;13.4;;
24867;SDS011;12941;48.698;9.310;2024-03-08T03:41:39;20.2;;;13.4;;
24867;SDS011;12941;48.698;9.310;2024-03-08T03:42:44;18.3;;;12.6;;
24867;SDS011;12941;48.698;9.310;2024-03-08T03:43:44;18.3;;;12.6;;
24867;SDS011;12941;48.698;9.310;2024-03-08T03:44:49;18.3;;;12.6;;
24867;SDS011;12941;48.698;9.310;2024-03-08T03:45:49;18.3;;;12.6;;
24867;SDS011;12941;48.698;9.310;2024-03-08T03:46:54;19.5;;;13.3;;
24867;SDS011;12941;48.698;9.310;2024-03-08T03:47:59;19.7;;;13.4;;
24867;SDS011;12941;48.698;9.310;2024-03-08T03:48:59;19.7;;;13.4;;
24867;SDS011;12941;48.698;9.310;2024-03-08T03:50:05;19.7;;;13.4;;
24867;SDS011;12941;48.698;9.310;2024-03-08T03:51:09;19.7;;;13.4;;
24867;SDS011;12941;48.698;9.310;2024-03-08T03:52:09;19.4;;;13.2;;
24867;SDS011;12941;48.698;9.310;2024-03-08T03:53:14;19.4;;;13.2;;
24867;SDS011;12941;48.698;9.310;2024-03-08T03:54:14;19.4;;;13.2;;
24867;SDS011;12941;48.698;9.310;2024-03-08T03:55:14;19.4;;;13.2;;
24867;SDS011;12941;48.698;9.310;2024-03-08T03:56:14;19.4;;;13.2;;
24867;SDS011;12941;48.698;9.310;2024-03-08T03:57:14;20.1;;;13.3;;
24867;SDS011;12941;48.698;9.310;2024-03-08T03:58:14;20.1;;;13.3;;
24867;SDS011;12941;48.698;9.310;2024-03-08T03:59:19;20.1;;;13.3;;
24867;SDS011;12941;48.698;9.310;2024-03-08T04:00:24;20.1;;;13.3;;
24867;SDS011;12941;48.698;9.310;2024-03-08T04:01:29;20.1;;;13.3;;
24867;SDS011;12941;48.698;9.310;2024-03-08T04:02:29;20.1;;;13.6;;
24867;SDS011;12941;48.698;9.310;2024-03-08T04:03:29;20.1;;;13.6;;
24867;SDS011;12941;48.698;9.310;2024-03-08T04:04:35;20.1;;;13.6;;
24867;SDS011;12941;48.698;9.310;2024-03-08T04:05:39;20.1;;;13.6;;
24867;SDS011;12941;48.698;9.310;2024-03-08T04:06:44;20.1;;;13.6;;
24867;SDS011;12941;48.698;9.310;2024-03-08T04:07:44;21.1;;;13.9;;
24867;SDS011;12941;48.698;9.310;2024-03-08T04:08:44;21.1;;;13.9;;
24867;SDS011;12941;48.698;9.310;2024-03-08T04:09:49;21.1;;;13.9;;
24867;SDS011;12941;48.698;9.310;2024-03-08T04:10:50;21.1;;;13.9;;
24867;SDS011;12941;48.698;9.310;2024-03-08T04:11:49;21.1;;;13.9;;
24867;SDS011;12941;48.698;9.310;2024-03-08T04:12:50;19.7;;;13.6;;
24867;SDS011;12941;48.698;9.310;2024-03-08T04:13:50;19.7;;;13.6;;
24867;SDS011;12941;48.698;9.310;2024-03-08T04:14:55;19.7;;;13.6;;
24867;SDS011;12941;48.698;9.310;2024-03-08T04:15:55;19.7;;;13.6;;
24867;SDS011;12941;48.698;9.310;2024-03-08T04:16:59;19.7;;;13.7;;
24867;SDS011;12941;48.698;9.310;2024-03-08T04:17:59;19.7;;;13.7;;
24867;SDS011;12941;48.698;9.310;2024-03-08T04:19:00;19.7;;;13.7;;
24867;SDS011;12941;48.698;9.310;2024-03-08T04:20:05;19.7;;;13.7;;
24867;SDS011;12941;48.698;9.310;2024-03-08T04:21:05;19.7;;;13.7;;
24867;SDS011;12941;48.698;9.310;2024-03-08T04:22:10;20.7;;;14.3;;
24867;SDS011;12941;48.698;9.310;2024-03-08T04:23:15;20.7;;;14.3;;
24867;SDS011;12941;48.698;9.310;2024-03-08T04:24:15;20.7;;;14.3;;
24867;SDS011;12941;48.698;9.310;2024-03-08T04:25:15;20.7;;;14.3;;
24867;SDS011;12941;48.698;9.310;2024-03-08T04:26:20;20.7;;;14.3;;
24867;SDS011;12941;48.698;9.310;2024-03-08T04:27:20;20;;;13.5;;
24867;SDS011;12941;48.698;9.310;2024-03-08T04:28:25;20;;;13.5;;
24867;SDS011;12941;48.698;9.310;2024-03-08T04:29:25;20;;;13.5;;
24867;SDS011;12941;48.698;9.310;2024-03-08T04:30:30;20;;;13.5;;
24867;SDS011;12941;48.698;9.310;2024-03-08T04:31:35;20;;;13.5;;
24867;SDS011;12941;48.698;9.310;2024-03-08T04:32:35;21.4;;;13.9;;
24867;SDS011;12941;48.698;9.310;2024-03-08T04:33:35;21.4;;;13.9;;
24867;SDS011;12941;48.698;9.310;2024-03-08T04:34:40;21.4;;;13.9;;
24867;SDS011;12941;48.698;9.310;2024-03-08T04:35:45;21.4;;;13.9;;
24867;SDS011;12941;48.698;9.310;2024-03-08T04:36:45;21.4;;;13.9;;
24867;SDS011;12941;48.698;9.310;2024-03-08T04:37:50;20;;;14.1;;
24867;SDS011;12941;48.698;9.310;2024-03-08T04:38:50;20;;;14.1;;
24867;SDS011;12941;48.698;9.310;2024-03-08T04:39:50;20;;;14.1;;
24867;SDS011;12941;48.698;9.310;2024-03-08T04:40:55;20;;;14.1;;
24867;SDS011;12941;48.698;9.310;2024-03-08T04:42:00;21.7;;;14.4;;
24867;SDS011;12941;48.698;9.310;2024-03-08T04:43:00;21.7;;;14.4;;
24867;SDS011;12941;48.698;9.310;2024-03-08T04:44:00;21.7;;;14.4;;
24867;SDS011;12941;48.698;9.310;2024-03-08T04:45:05;21.7;;;14.4;;
24867;SDS011;12941;48.698;9.310;2024-03-08T04:46:10;21.7;;;14.4;;
24867;SDS011;12941;48.698;9.310;2024-03-08T04:47:10;21.2;;;14;;
24867;SDS011;12941;48.698;9.310;2024-03-08T04:48:15;21.2;;;14;;
24867;SDS011;12941;48.698;9.310;2024-03-08T04:49:20;21.2;;;14;;
24867;SDS011;12941;48.698;9.310;2024-03-08T04:50:25;21.2;;;14;;
24867;SDS011;12941;48.698;9.310;2024-03-08T04:51:30;21.2;;;14;;
24867;SDS011;12941;48.698;9.310;2024-03-08T04:52:30;20.6;;;14.3;;
24867;SDS011;12941;48.698;9.310;2024-03-08T04:53:30;20.6;;;14.3;;
24867;SDS011;12941;48.698;9.310;2024-03-08T04:54:30;20.6;;;14.3;;
24867;SDS011;12941;48.698;9.310;2024-03-08T04:55:35;20.6;;;14.3;;
24867;SDS011;12941;48.698;9.310;2024-03-08T04:56:40;20.6;;;14.3;;
24867;SDS011;12941;48.698;9.310;2024-03-08T04:57:45;20.9;;;14.3;;
24867;SDS011;12941;48.698;9.310;2024-03-08T04:58:50;20.9;;;14.3;;
24867;SDS011;12941;48.698;9.310;2024-03-08T04:59:50;20.9;;;14.3;;
24867;SDS011;12941;48.698;9.310;2024-03-08T05:00:50;20.9;;;14.3;;
24867;SDS011;12941;48.698;9.310;2024-03-08T05:01:50;20.9;;;14.3;;
24867;SDS011;12941;48.698;9.310;2024-03-08T05:02:55;20.8;;;13.8;;
24867;SDS011;12941;48.698;9.310;2024-03-08T05:03:55;20.8;;;13.8;;
24867;SDS011;12941;48.698;9.310;2024-03-08T05:04:55;20.8;;;13.8;;
24867;SDS011;12941;48.698;9.310;2024-03-08T05:05:55;20.8;;;13.8;;
24867;SDS011;12941;48.698;9.310;2024-03-08T05:06:55;21.9;;;14.6;;
24867;SDS011;12941;48.698;9.310;2024-03-08T05:07:55;21.8;;;14.5;;
24867;SDS011;12941;48.698;9.310;2024-03-08T05:09:00;21.8;;;14.5;;
24867;SDS011;12941;48.698;9.310;2024-03-08T05:10:05;21.8;;;14.5;;
24867;SDS011;12941;48.698;9.310;2024-03-08T05:11:05;21.8;;;14.5;;
24867;SDS011;12941;48.698;9.310;2024-03-08T05:12:05;22.8;;;15.2;;
24867;SDS011;12941;48.698;9.310;2024-03-08T05:13:05;22.8;;;15.2;;
24867;SDS011;12941;48.698;9.310;2024-03-08T05:14:10;22.8;;;15.2;;
24867;SDS011;12941;48.698;9.310;2024-03-08T05:15:15;22.8;;;15.2;;
24867;SDS011;12941;48.698;9.310;2024-03-08T05:16:15;22.8;;;15.2;;
24867;SDS011;12941;48.698;9.310;2024-03-08T05:17:20;22.2;;;14.5;;
24867;SDS011;12941;48.698;9.310;2024-03-08T05:18:20;22.2;;;14.5;;
24867;SDS011;12941;48.698;9.310;2024-03-08T05:19:20;22.2;;;14.5;;
24867;SDS011;12941;48.698;9.310;2024-03-08T05:20:25;22.2;;;14.5;;
24867;SDS011;12941;48.698;9.310;2024-03-08T05:21:30;22.2;;;14.5;;
24867;SDS011;12941;48.698;9.310;2024-03-08T05:22:30;21.2;;;14.1;;
24867;SDS011;12941;48.698;9.310;2024-03-08T05:23:35;21.2;;;14.1;;
24867;SDS011;12941;48.698;9.310;2024-03-08T05:24:40;21.2;;;14.1;;
24867;SDS011;12941;48.698;9.310;2024-03-08T05:25:45;21.2;;;14.1;;
24867;SDS011;12941;48.698;9.310;2024-03-08T05:26:50;21.2;;;14.1;;
24867;SDS011;12941;48.698;9.310;2024-03-08T05:27:55;20.6;;;14.5;;
24867;SDS011;12941;48.698;9.310;2024-03-08T05:29:00;20.6;;;14.5;;
24867;SDS011;12941;48.698;9.310;2024-03-08T05:30:06;20.6;;;14.5;;
24867;SDS011;12941;48.698;9.310;2024-03-08T05:31:05;20.6;;;14.5;;
24867;SDS011;12941;48.698;9.310;2024-03-08T05:32:10;22.3;;;14.3;;
24867;SDS011;12941;48.698;9.310;2024-03-08T05:33:10;22.3;;;14.3;;
24867;SDS011;12941;48.698;9.310;2024-03-08T05:34:10;22.3;;;14.3;;
24867;SDS011;12941;48.698;9.310;2024-03-08T05:35:15;22.3;;;14.3;;
24867;SDS011;12941;48.698;9.310;2024-03-08T05:36:15;22.3;;;14.3;;
24867;SDS011;12941;48.698;9.310;2024-03-08T05:37:15;21.2;;;14.1;;
24867;SDS011;12941;48.698;9.310;2024-03-08T05:38:20;21.2;;;14.1;;
24867;SDS011;12941;48.698;9.310;2024-03-08T05:39:20;21.2;;;14.1;;
24867;SDS011;12941;48.698;9.310;2024-03-08T05:40:20;21.2;;;14.1;;
24867;SDS011;12941;48.698;9.310;2024-03-08T05:41:25;21.2;;;14.1;;
24867;SDS011;12941;48.698;9.310;2024-03-08T05:42:25;21.6;;;14.7;;
24867;SDS011;12941;48.698;9.310;2024-03-08T05:43:30;21.6;;;14.7;;
24867;SDS011;12941;48.698;9.310;2024-03-08T05:44:35;21.6;;;14.7;;
24867;SDS011;12941;48.698;9.310;2024-03-08T05:45:41;21.6;;;14.7;;
24867;SDS011;12941;48.698;9.310;2024-03-08T05:46:45;21.6;;;14.7;;
24867;SDS011;12941;48.698;9.310;2024-03-08T05:47:45;23.1;;;14.5;;
24867;SDS011;12941;48.698;9.310;2024-03-08T05:48:50;23.1;;;14.5;;
24867;SDS011;12941;48.698;9.310;2024-03-08T05:49:55;23.1;;;14.5;;
24867;SDS011;12941;48.698;9.310;2024-03-08T05:50:55;23.1;;;14.5;;
24867;SDS011;12941;48.698;9.310;2024-03-08T05:51:55;22.3;;;14.7;;
24867;SDS011;12941;48.698;9.310;2024-03-08T05:52:55;22.1;;;14.7;;
24867;SDS011;12941;48.698;9.310;2024-03-08T05:54:01;22.1;;;14.7;;
24867;SDS011;12941;48.698;9.310;2024-03-08T05:55:00;22.1;;;14.7;;
24867;SDS011;12941;48.698;9.310;2024-03-08T05:56:05;22.1;;;14.7;;
24867;SDS011;12941;48.698;9.310;2024-03-08T05:57:05;23.7;;;14.7;;
24867;SDS011;12941;48.698;9.310;2024-03-08T05:58:05;23.7;;;14.7;;
24867;SDS011;12941;48.698;9.310;2024-03-08T05:59:11;23.7;;;14.7;;
24867;SDS011;12941;48.698;9.310;2024-03-08T06:00:16;23.7;;;14.7;;
24867;SDS011;12941;48.698;9.310;2024-03-08T06:01:20;23.7;;;14.7;;
24867;SDS011;12941;48.698;9.310;2024-03-08T06:02:25;24;;;15.3;;
24867;SDS011;12941;48.698;9.310;2024-03-08T06:03:30;24;;;15.3;;
24867;SDS011;12941;48.698;9.310;2024-03-08T06:04:30;24;;;15.3;;
24867;SDS011;12941;48.698;9.310;2024-03-08T06:05:31;24;;;15.3;;
24867;SDS011;12941;48.698;9.310;2024-03-08T06:06:35;24;;;15.3;;
24867;SDS011;12941;48.698;9.310;2024-03-08T06:07:36;21.1;;;14.2;;
24867;SDS011;12941;48.698;9.310;2024-03-08T06:08:41;21.1;;;14.2;;
24867;SDS011;12941;48.698;9.310;2024-03-08T06:09:41;21.1;;;14.2;;
24867;SDS011;12941;48.698;9.310;2024-03-08T06:10:45;21.1;;;14.2;;
24867;SDS011;12941;48.698;9.310;2024-03-08T06:11:45;21.1;;;14.2;;
24867;SDS011;12941;48.698;9.310;2024-03-08T06:12:51;20.5;;;14.7;;
24867;SDS011;12941;48.698;9.310;2024-03-08T06:13:51;20.5;;;14.7;;
24867;SDS011;12941;48.698;9.310;2024-03-08T06:14:55;20.5;;;14.7;;
24867;SDS011;12941;48.698;9.310;2024-03-08T06:15:55;20.5;;;14.7;;
24867;SDS011;12941;48.698;9.310;2024-03-08T06:16:56;23.9;;;14.6;;
24867;SDS011;12941;48.698;9.310;2024-03-08T06:18:00;23.8;;;14.6;;
24867;SDS011;12941;48.698;9.310;2024-03-08T06:19:01;23.8;;;14.6;;